Terminal Aerodrome Forecast
Issued by NWS

Home | Current Version | Previous Version | Text Only | Print | Product List | Glossary On
Versions: 1 2 3 4 5 6 7 8 9 10 11 12 13 14
000
FTUS46 KSEW 181100
TAFPAE
TAF
KPAE 181120Z 1812/1912 00000KT P6SM -SHRA FEW003 OVC060
      TEMPO 1812/1815 3SM BR BKN003 OVC060
     FM181500 21004KT 5SM BR BKN005 OVC040
     FM182000 22006KT P6SM BKN020 OVC050
     FM182300 VRB05KT P6SM SCT030 OVC060
     FM190700 16006KT P6SM BKN015 OVC030=

USA.gov is the U.S. government's official web portal to all federal, state and local government web resources and services.